Time;durP1;ratioP1;P1;durP2;ratioP2;P2;SDS_P1;SDS_P2;PMS_P1;PMS_P2;Temp;Humidity;BMP_temperature;BMP_pressure;BME280_temperature;BME280_humidity;BME280_pressure;Samples;Min_cycle;Max_cycle;Signal;HPM_P1;HPM_P2
2022/07/07 00:01:55;;;;;;;1.48;0.88;;;23.30;76.90;;;;;;5013393;28;20487;-65
2022/07/07 00:04:21;;;;;;;2.15;1.00;;;23.30;76.80;;;;;;5013089;28;20467;-65
2022/07/07 00:06:46;;;;;;;2.58;1.25;;;23.20;76.70;;;;;;5012582;28;20148;-64
2022/07/07 00:09:12;;;;;;;3.08;1.50;;;23.20;76.80;;;;;;5013244;28;20029;-65
2022/07/07 00:11:37;;;;;;;2.30;1.50;;;23.20;77.00;;;;;;5013338;28;20113;-68
2022/07/07 00:14:07;;;;;;;1.90;1.08;;;23.20;77.00;;;;;;5013312;28;20125;-66
2022/07/07 00:16:33;;;;;;;4.53;1.70;;;23.20;77.70;;;;;;5013234;28;20463;-67
2022/07/07 00:19:01;;;;;;;2.63;1.55;;;23.20;77.10;;;;;;5013297;28;20058;-68
2022/07/07 00:21:27;;;;;;;2.97;1.80;;;23.20;77.30;;;;;;5012798;28;20017;-66
2022/07/07 00:23:52;;;;;;;4.43;1.98;;;23.20;77.30;;;;;;5013247;28;20383;-68
2022/07/07 00:26:18;;;;;;;2.17;1.77;;;23.20;77.40;;;;;;5013255;28;20089;-67
2022/07/07 00:28:44;;;;;;;2.42;1.58;;;23.20;77.60;;;;;;5013187;28;20539;-66
2022/07/07 00:31:09;;;;;;;1.42;0.93;;;23.10;77.40;;;;;;5013240;28;20506;-67
2022/07/07 00:33:35;;;;;;;2.35;1.30;;;23.10;77.30;;;;;;5012723;28;20038;-66
2022/07/07 00:36:00;;;;;;;2.28;1.33;;;23.10;77.50;;;;;;5012846;28;20435;-67
2022/07/07 00:38:26;;;;;;;2.90;2.00;;;23.10;77.60;;;;;;5012965;28;20064;-67
2022/07/07 00:40:53;;;;;;;2.78;1.40;;;23.10;77.80;;;;;;5013083;28;20022;-66
2022/07/07 00:43:19;;;;;;;3.03;1.55;;;23.10;77.80;;;;;;5012839;28;20081;-66
2022/07/07 00:45:47;;;;;;;3.28;1.65;;;23.10;77.80;;;;;;5012951;28;20026;-67
2022/07/07 00:48:14;;;;;;;1.33;0.80;;;23.10;77.80;;;;;;5012726;28;20030;-67
2022/07/07 00:50:40;;;;;;;2.75;1.83;;;23.10;77.60;;;;;;5012714;28;20025;-67
2022/07/07 00:53:05;;;;;;;2.08;1.63;;;23.10;77.90;;;;;;5012761;28;20033;-65
2022/07/07 00:55:31;;;;;;;4.35;2.15;;;23.00;78.00;;;;;;5012987;28;20037;-66
2022/07/07 00:57:57;;;;;;;3.75;2.25;;;23.00;78.10;;;;;;4995204;28;20034;-66
2022/07/07 01:00:22;;;;;;;3.60;2.03;;;23.00;78.20;;;;;;5012887;28;20021;-67
2022/07/07 01:02:48;;;;;;;3.35;2.33;;;23.00;78.30;;;;;;5012881;28;20112;-67
2022/07/07 01:05:13;;;;;;;1.50;1.17;;;23.00;78.40;;;;;;5012502;28;20025;-67
2022/07/07 01:07:39;;;;;;;4.75;2.20;;;23.00;78.30;;;;;;5012895;28;20028;-68
2022/07/07 01:10:07;;;;;;;3.25;2.05;;;23.00;78.50;;;;;;5012618;28;20030;-68
2022/07/07 01:12:37;;;;;;;1.98;1.77;;;23.00;78.60;;;;;;5012532;28;20061;-67
2022/07/07 01:15:04;;;;;;;4.68;2.63;;;23.00;78.60;;;;;;5012836;28;20030;-67
2022/07/07 01:17:30;;;;;;;2.92;1.83;;;23.00;78.70;;;;;;5015148;28;20018;-67
2022/07/07 01:19:56;;;;;;;3.25;1.40;;;23.00;78.60;;;;;;5015797;28;20036;-68
2022/07/07 01:22:26;;;;;;;8.60;3.58;;;23.00;79.30;;;;;;5016350;28;20022;-67
2022/07/07 01:24:52;;;;;;;3.10;1.52;;;23.00;78.80;;;;;;5016105;28;20033;-67
2022/07/07 01:27:19;;;;;;;6.18;2.33;;;22.90;78.80;;;;;;5016280;28;20026;-70
2022/07/07 01:29:51;;;;;;;7.68;3.08;;;22.90;78.70;;;;;;5015989;28;20050;-67
2022/07/07 01:32:17;;;;;;;2.85;2.03;;;22.90;78.90;;;;;;5016027;28;20414;-67
2022/07/07 01:34:44;;;;;;;3.33;2.20;;;22.90;78.90;;;;;;5015774;28;20467;-68
2022/07/07 01:37:11;;;;;;;1.85;1.20;;;22.90;79.10;;;;;;5016060;28;20057;-67
2022/07/07 01:39:38;;;;;;;3.28;2.55;;;22.90;79.10;;;;;;5015762;28;20022;-69
2022/07/07 01:42:04;;;;;;;3.83;1.45;;;22.90;79.30;;;;;;5015944;28;20030;-65
2022/07/07 01:44:31;;;;;;;1.92;0.90;;;22.90;79.30;;;;;;5015599;28;20042;-65
2022/07/07 01:46:57;;;;;;;5.25;3.30;;;22.90;79.40;;;;;;5015848;28;20018;-65
2022/07/07 01:49:22;;;;;;;6.78;3.95;;;22.90;79.70;;;;;;5015268;28;20029;-65
2022/07/07 01:51:48;;;;;;;4.40;3.00;;;22.90;79.90;;;;;;5015698;28;20026;-65
2022/07/07 01:54:13;;;;;;;6.68;3.50;;;22.80;79.80;;;;;;5015558;28;20029;-65
2022/07/07 01:56:39;;;;;;;6.40;3.00;;;22.80;79.80;;;;;;5015732;28;20022;-64
2022/07/07 01:59:05;;;;;;;4.88;2.58;;;22.80;79.90;;;;;;5015520;28;20033;-64
2022/07/07 02:01:30;;;;;;;6.55;2.35;;;22.80;80.00;;;;;;5015358;28;20026;-65
2022/07/07 02:03:56;;;;;;;5.60;2.75;;;22.80;80.00;;;;;;5015147;28;20077;-64
2022/07/07 02:06:21;;;;;;;4.22;2.00;;;22.80;80.00;;;;;;5015445;28;20104;-64
2022/07/07 02:08:47;;;;;;;1.20;1.10;;;22.80;80.10;;;;;;5015248;28;20022;-64
2022/07/07 02:11:12;;;;;;;5.90;1.77;;;22.80;80.00;;;;;;5015226;28;20073;-65
2022/07/07 02:13:50;;;;;;;5.45;2.70;;;22.80;80.30;;;;;;5015272;28;20081;-67
2022/07/07 02:16:17;;;;;;;1.92;1.27;;;22.70;80.20;;;;;;5014979;28;20464;-69
2022/07/07 02:18:45;;;;;;;3.97;2.35;;;22.70;80.00;;;;;;5015460;28;20058;-67
2022/07/07 02:21:13;;;;;;;8.63;2.35;;;22.70;80.30;;;;;;5015208;28;20092;-67
2022/07/07 02:23:41;;;;;;;6.53;2.47;;;22.70;80.30;;;;;;5015117;28;20100;-65
2022/07/07 02:26:07;;;;;;;2.38;1.17;;;22.70;80.40;;;;;;5014919;28;20037;-68
2022/07/07 02:28:33;;;;;;;5.70;2.00;;;22.70;80.40;;;;;;4996562;28;20132;-65
2022/07/07 02:30:59;;;;;;;5.22;2.00;;;22.70;80.40;;;;;;5014614;28;20371;-65
2022/07/07 02:33:25;;;;;;;5.63;2.15;;;22.70;80.50;;;;;;5014939;28;20515;-67
2022/07/07 02:35:52;;;;;;;5.20;1.55;;;22.70;81.30;;;;;;5014757;28;20018;-65
2022/07/07 02:38:18;;;;;;;2.60;0.90;;;22.70;80.60;;;;;;5014862;28;20105;-67
2022/07/07 02:40:43;;;;;;;3.33;1.30;;;22.70;80.50;;;;;;5014836;28;20118;-67
2022/07/07 02:43:13;;;;;;;2.30;1.30;;;22.70;80.60;;;;;;5014617;28;20050;-67
2022/07/07 02:45:46;;;;;;;1.98;1.05;;;22.70;80.50;;;;;;5014228;28;20442;-67
2022/07/07 02:48:14;;;;;;;2.42;1.40;;;22.70;80.50;;;;;;5014750;28;20100;-66
2022/07/07 02:50:40;;;;;;;4.22;1.25;;;22.70;80.60;;;;;;5014622;28;20436;-68
2022/07/07 02:53:07;;;;;;;4.82;1.30;;;22.60;80.50;;;;;;5014413;28;20476;-68
2022/07/07 02:55:32;;;;;;;1.92;1.02;;;22.60;80.70;;;;;;5014407;28;20018;-67
2022/07/07 02:57:59;;;;;;;2.55;0.90;;;22.60;80.60;;;;;;5014459;28;20028;-68
2022/07/07 03:00:25;;;;;;;2.97;1.30;;;22.60;80.60;;;;;;5014089;28;20114;-67
2022/07/07 03:02:52;;;;;;;2.30;0.70;;;22.60;80.70;;;;;;5014496;28;20022;-67
2022/07/07 03:05:18;;;;;;;2.53;0.82;;;22.60;80.60;;;;;;5014454;28;20029;-67
2022/07/07 03:07:44;;;;;;;2.03;0.77;;;22.60;80.70;;;;;;5013394;28;20021;-65
2022/07/07 03:10:09;;;;;;;2.08;0.80;;;22.60;80.60;;;;;;5013773;28;20562;-66
2022/07/07 03:12:35;;;;;;;3.65;0.82;;;22.60;80.60;;;;;;5013426;28;20062;-67
2022/07/07 03:15:01;;;;;;;2.20;0.65;;;22.60;80.70;;;;;;5012661;28;20471;-64
2022/07/07 03:17:26;;;;;;;2.47;0.50;;;22.60;80.70;;;;;;5013919;28;20387;-65
2022/07/07 03:19:52;;;;;;;2.45;0.50;;;22.60;80.70;;;;;;5013934;28;20033;-65
2022/07/07 03:22:17;;;;;;;4.50;0.82;;;22.60;80.50;;;;;;5014220;28;20479;-67
2022/07/07 03:24:43;;;;;;;1.17;0.47;;;22.60;80.60;;;;;;5014017;28;20029;-67
2022/07/07 03:27:09;;;;;;;2.72;0.60;;;22.60;80.70;;;;;;5013965;28;20475;-65
2022/07/07 03:29:34;;;;;;;2.30;0.75;;;22.50;80.70;;;;;;5013363;28;20030;-66
2022/07/07 03:32:00;;;;;;;1.95;0.60;;;22.60;81.00;;;;;;5013832;28;20030;-65
2022/07/07 03:34:26;;;;;;;1.60;0.50;;;22.60;81.20;;;;;;5013762;28;20510;-67
2022/07/07 03:36:51;;;;;;;2.42;0.57;;;22.60;81.70;;;;;;5013772;28;20379;-65
2022/07/07 03:39:17;;;;;;;2.20;0.73;;;22.50;81.90;;;;;;5013704;28;20026;-64
2022/07/07 03:41:42;;;;;;;2.92;0.80;;;22.50;81.90;;;;;;5013744;28;20382;-65
2022/07/07 03:44:08;;;;;;;2.40;0.60;;;22.50;82.40;;;;;;5013383;28;20037;-65
2022/07/07 03:46:33;;;;;;;2.60;0.85;;;22.50;82.50;;;;;;5013639;28;20018;-65
2022/07/07 03:48:59;;;;;;;4.45;1.20;;;22.50;82.80;;;;;;5013558;28;20475;-64
2022/07/07 03:51:25;;;;;;;1.83;1.10;;;22.50;83.00;;;;;;5013598;28;20105;-67
2022/07/07 03:53:51;;;;;;;1.77;1.05;;;22.50;83.20;;;;;;5013368;28;20037;-65
2022/07/07 03:56:17;;;;;;;1.48;1.00;;;22.50;83.40;;;;;;5013731;28;20452;-67
2022/07/07 03:58:43;;;;;;;2.40;0.98;;;22.50;83.60;;;;;;5013399;28;20510;-67
2022/07/07 04:01:09;;;;;;;3.67;1.50;;;22.50;83.50;;;;;;5013616;28;20037;-65
2022/07/07 04:03:34;;;;;;;5.25;1.23;;;22.40;83.60;;;;;;5013382;28;20021;-65
2022/07/07 04:06:00;;;;;;;1.88;0.77;;;22.50;83.70;;;;;;5013382;28;20025;-64
2022/07/07 04:08:25;;;;;;;3.10;1.17;;;22.50;83.80;;;;;;5013167;28;20049;-64
2022/07/07 04:10:51;;;;;;;2.13;0.77;;;22.40;83.90;;;;;;5013371;28;20085;-65
2022/07/07 04:13:17;;;;;;;3.97;0.77;;;22.50;84.00;;;;;;5012803;28;20033;-65
2022/07/07 04:15:43;;;;;;;1.95;1.05;;;22.40;84.10;;;;;;5013319;28;20034;-65
2022/07/07 04:18:08;;;;;;;2.80;0.90;;;22.40;84.00;;;;;;5013252;28;20028;-68
2022/07/07 04:20:34;;;;;;;2.00;0.90;;;22.40;84.00;;;;;;5013357;28;20105;-67
2022/07/07 04:23:00;;;;;;;1.80;0.77;;;22.40;84.20;;;;;;5013154;28;20032;-68
2022/07/07 04:25:25;;;;;;;2.17;0.88;;;22.40;84.30;;;;;;5013190;28;20032;-67
2022/07/07 04:27:51;;;;;;;3.15;0.88;;;22.40;84.20;;;;;;5012771;28;20025;-67
2022/07/07 04:30:17;;;;;;;1.58;0.65;;;22.40;84.20;;;;;;5013357;28;20379;-67
2022/07/07 04:32:42;;;;;;;3.42;0.90;;;22.40;84.10;;;;;;5012897;28;20041;-67
2022/07/07 04:35:08;;;;;;;2.10;0.85;;;22.30;84.20;;;;;;5013298;28;20018;-67
2022/07/07 04:37:34;;;;;;;1.15;0.50;;;22.30;84.00;;;;;;5012638;28;20037;-68
2022/07/07 04:40:01;;;;;;;2.72;0.90;;;22.30;83.90;;;;;;5013286;28;20030;-67
2022/07/07 04:42:26;;;;;;;3.40;0.90;;;22.30;84.00;;;;;;5013005;28;20022;-66
2022/07/07 04:44:52;;;;;;;2.33;0.60;;;22.30;84.00;;;;;;5012935;28;20075;-66
2022/07/07 04:47:17;;;;;;;2.28;0.77;;;22.30;83.80;;;;;;5012896;28;20026;-67
2022/07/07 04:49:43;;;;;;;3.03;0.40;;;22.30;83.60;;;;;;5012825;28;20038;-67
2022/07/07 04:52:09;;;;;;;1.40;0.60;;;22.30;83.60;;;;;;5015165;28;20034;-67
2022/07/07 04:54:35;;;;;;;2.13;0.80;;;22.30;83.40;;;;;;5016822;28;20018;-67
2022/07/07 04:57:01;;;;;;;1.55;0.70;;;22.30;83.30;;;;;;4999006;28;20097;-68
2022/07/07 04:59:26;;;;;;;2.53;0.63;;;22.30;83.30;;;;;;5016628;28;20459;-68
2022/07/07 05:01:52;;;;;;;1.85;0.55;;;22.30;83.50;;;;;;5015419;28;20091;-67
2022/07/07 05:04:17;;;;;;;1.92;0.50;;;22.30;83.90;;;;;;5016377;28;20018;-67
2022/07/07 05:06:43;;;;;;;1.40;0.35;;;22.30;84.00;;;;;;5015156;28;20029;-67
2022/07/07 05:09:12;;;;;;;2.88;0.28;;;22.30;83.90;;;;;;5015440;28;20478;-66
2022/07/07 05:11:37;;;;;;;3.47;0.38;;;22.30;84.00;;;;;;5016273;28;20037;-67
2022/07/07 05:14:03;;;;;;;1.10;0.43;;;22.30;84.00;;;;;;5016293;28;20034;-67
2022/07/07 05:16:30;;;;;;;1.50;0.40;;;22.20;84.00;;;;;;5016334;28;20380;-65
2022/07/07 05:18:56;;;;;;;2.15;0.20;;;22.20;83.80;;;;;;5016212;28;20065;-68
2022/07/07 05:21:21;;;;;;;1.27;0.20;;;22.20;84.00;;;;;;5016408;28;20543;-68
2022/07/07 05:23:47;;;;;;;2.45;0.40;;;22.20;84.00;;;;;;5016049;28;20080;-67
2022/07/07 05:26:13;;;;;;;2.25;0.55;;;22.20;84.10;;;;;;5015837;28;20033;-67
2022/07/07 05:28:41;;;;;;;2.28;0.52;;;22.20;84.30;;;;;;5016089;28;20034;-65
2022/07/07 05:31:14;;;;;;;0.77;0.28;;;22.20;84.40;;;;;;5016270;28;20093;-64
2022/07/07 05:33:40;;;;;;;1.40;0.20;;;22.20;84.40;;;;;;5015731;28;20030;-64
2022/07/07 05:36:08;;;;;;;2.47;0.30;;;22.20;84.80;;;;;;5016135;28;20048;-65
2022/07/07 05:38:34;;;;;;;2.35;0.17;;;22.20;84.90;;;;;;5015774;28;20044;-67
2022/07/07 05:41:00;;;;;;;1.58;0.20;;;22.10;84.90;;;;;;5015703;28;20029;-66
2022/07/07 05:43:26;;;;;;;1.55;0.30;;;22.10;85.00;;;;;;5015788;28;20113;-65
2022/07/07 05:45:51;;;;;;;1.52;0.35;;;22.10;85.20;;;;;;5015738;28;20555;-66
2022/07/07 05:48:17;;;;;;;2.22;0.35;;;22.10;85.10;;;;;;5015924;28;20101;-67
2022/07/07 05:50:43;;;;;;;0.63;0.30;;;22.10;85.10;;;;;;5015538;28;20030;-67
2022/07/07 05:53:09;;;;;;;1.33;0.32;;;22.10;85.10;;;;;;5015496;28;20038;-67
2022/07/07 05:55:34;;;;;;;8.48;1.05;;;22.10;85.30;;;;;;5015391;28;20029;-67
2022/07/07 05:58:00;;;;;;;3.92;0.98;;;22.10;85.40;;;;;;5015842;28;20029;-66
2022/07/07 06:00:26;;;;;;;2.53;0.32;;;22.10;85.50;;;;;;5015540;28;20022;-66
2022/07/07 06:02:52;;;;;;;2.08;0.38;;;22.10;85.70;;;;;;5014348;28;20017;-66
2022/07/07 06:05:18;;;;;;;2.22;0.63;;;22.10;85.60;;;;;;5015290;28;20021;-67
2022/07/07 06:07:43;;;;;;;0.93;0.32;;;22.10;85.40;;;;;;5015243;28;20033;-67
2022/07/07 06:10:11;;;;;;;2.80;0.45;;;22.10;85.50;;;;;;5015097;28;20447;-67
2022/07/07 06:12:37;;;;;;;2.03;0.50;;;22.10;85.40;;;;;;5015034;28;20030;-65
2022/07/07 06:15:04;;;;;;;3.13;0.77;;;22.10;85.60;;;;;;5015486;28;20261;-67
2022/07/07 06:17:29;;;;;;;3.97;0.80;;;22.10;85.50;;;;;;5015255;28;20536;-67
2022/07/07 06:19:55;;;;;;;3.05;0.60;;;22.10;85.50;;;;;;5014903;28;20062;-67
2022/07/07 06:22:21;;;;;;;2.90;0.73;;;22.20;85.30;;;;;;5015363;28;20108;-67
2022/07/07 06:24:46;;;;;;;2.35;0.47;;;22.20;85.10;;;;;;5014555;28;20023;-67
2022/07/07 06:27:12;;;;;;;4.70;0.80;;;22.20;84.90;;;;;;5015362;28;20108;-68
2022/07/07 06:29:37;;;;;;;4.60;0.77;;;22.20;84.60;;;;;;5014985;28;20490;-68
2022/07/07 06:32:03;;;;;;;1.70;0.32;;;22.20;84.30;;;;;;5014881;28;20113;-68
2022/07/07 06:34:29;;;;;;;3.85;1.13;;;22.20;84.00;;;;;;5014670;28;20089;-68
2022/07/07 06:36:55;;;;;;;5.38;0.85;;;22.20;83.60;;;;;;5015007;28;20014;-67
2022/07/07 06:39:20;;;;;;;3.22;0.88;;;22.20;83.50;;;;;;5014674;28;20030;-69
2022/07/07 06:41:46;;;;;;;3.65;0.63;;;22.20;83.00;;;;;;5014365;28;20030;-68
2022/07/07 06:44:12;;;;;;;5.28;1.15;;;22.20;82.90;;;;;;5014820;28;20081;-68
2022/07/07 06:46:39;;;;;;;5.35;0.88;;;22.20;82.80;;;;;;5014623;28;20022;-69
2022/07/07 06:49:05;;;;;;;3.35;0.70;;;22.20;82.70;;;;;;5014665;28;20030;-67
2022/07/07 06:51:31;;;;;;;5.00;0.82;;;22.30;82.60;;;;;;5014622;28;20026;-68
2022/07/07 06:53:57;;;;;;;5.30;1.02;;;22.30;82.50;;;;;;5014116;28;20037;-66
2022/07/07 06:56:23;;;;;;;3.65;0.50;;;22.30;82.10;;;;;;5014454;28;20153;-68
2022/07/07 06:58:49;;;;;;;2.78;0.88;;;22.30;81.90;;;;;;5014547;28;20057;-68
2022/07/07 07:01:14;;;;;;;6.05;1.38;;;22.30;81.90;;;;;;5014399;28;20029;-68
2022/07/07 07:03:40;;;;;;;5.70;1.25;;;22.30;82.00;;;;;;5014116;28;20562;-68
2022/07/07 07:06:06;;;;;;;7.72;1.30;;;22.40;82.10;;;;;;5014444;28;20024;-68
2022/07/07 07:08:32;;;;;;;3.58;1.13;;;22.40;82.00;;;;;;5013885;28;20116;-68
2022/07/07 07:10:58;;;;;;;3.90;1.02;;;22.40;81.60;;;;;;5014173;28;20054;-68
2022/07/07 07:13:23;;;;;;;4.30;0.93;;;22.40;81.50;;;;;;5014225;28;20034;-68
2022/07/07 07:15:49;;;;;;;5.03;1.00;;;22.40;81.20;;;;;;5013512;28;20034;-68
2022/07/07 07:18:14;;;;;;;3.97;0.98;;;22.40;81.40;;;;;;5014118;28;20033;-67
2022/07/07 07:20:40;;;;;;;4.95;0.80;;;22.50;81.30;;;;;;5013942;28;20031;-68
2022/07/07 07:23:06;;;;;;;1.80;0.60;;;22.50;81.30;;;;;;5013777;28;20018;-68
2022/07/07 07:25:32;;;;;;;3.00;0.90;;;22.50;81.10;;;;;;5013788;28;20025;-68
2022/07/07 07:27:57;;;;;;;2.95;0.73;;;22.60;80.70;;;;;;5014103;28;20116;-68
2022/07/07 07:30:24;;;;;;;2.75;0.55;;;22.60;80.40;;;;;;5014037;28;20026;-68
2022/07/07 07:32:49;;;;;;;2.78;0.77;;;22.60;80.50;;;;;;5013611;28;20041;-68
2022/07/07 07:35:15;;;;;;;3.63;0.80;;;22.70;80.70;;;;;;5013720;28;20383;-67
2022/07/07 07:37:41;;;;;;;1.52;0.70;;;22.70;80.60;;;;;;5013414;28;20379;-68
2022/07/07 07:40:08;;;;;;;3.67;0.77;;;22.70;80.40;;;;;;5013790;28;20472;-68
2022/07/07 07:42:34;;;;;;;1.75;0.43;;;22.70;80.20;;;;;;5013559;28;20069;-67
2022/07/07 07:45:09;;;;;;;1.42;0.45;;;22.80;80.30;;;;;;5013579;28;20029;-68
2022/07/07 07:47:36;;;;;;;3.30;0.77;;;22.80;79.90;;;;;;4995741;28;20034;-69
2022/07/07 07:50:01;;;;;;;4.40;1.08;;;22.80;79.30;;;;;;5013373;28;20096;-68
2022/07/07 07:52:27;;;;;;;6.07;0.98;;;22.90;78.80;;;;;;5013510;28;20153;-68
2022/07/07 07:54:53;;;;;;;7.30;1.15;;;22.90;78.40;;;;;;5013580;28;20036;-68
2022/07/07 07:57:19;;;;;;;5.05;0.70;;;22.90;78.20;;;;;;5013429;28;20013;-68
2022/07/07 07:59:44;;;;;;;5.07;0.93;;;23.00;77.90;;;;;;5013400;28;20061;-68
2022/07/07 08:02:10;;;;;;;3.83;0.85;;;23.00;78.40;;;;;;5013424;28;20021;-69
2022/07/07 08:04:35;;;;;;;11.38;1.42;;;23.10;78.30;;;;;;5013378;28;20428;-68
2022/07/07 08:07:01;;;;;;;5.53;1.20;;;23.10;77.80;;;;;;5013296;28;20040;-67
2022/07/07 08:09:27;;;;;;;3.08;0.70;;;23.10;77.70;;;;;;5013490;28;20353;-67
2022/07/07 08:11:53;;;;;;;4.45;0.63;;;23.10;77.50;;;;;;5012909;28;20058;-66
2022/07/07 08:14:18;;;;;;;3.08;0.55;;;23.20;77.80;;;;;;5013356;28;20026;-67
2022/07/07 08:16:44;;;;;;;1.50;0.30;;;23.20;77.90;;;;;;4995649;28;20044;-66
2022/07/07 08:19:09;;;;;;;2.30;0.22;;;23.20;77.90;;;;;;5012968;28;20026;-68
2022/07/07 08:21:36;;;;;;;4.90;0.38;;;23.20;77.70;;;;;;5013162;28;20022;-67
2022/07/07 08:24:02;;;;;;;1.85;0.20;;;23.30;77.60;;;;;;5013137;28;20022;-68
2022/07/07 08:26:28;;;;;;;3.55;0.50;;;23.30;77.40;;;;;;5014359;28;20032;-68
2022/07/07 08:28:53;;;;;;;2.63;0.20;;;23.30;77.30;;;;;;4999583;28;20029;-67
2022/07/07 08:31:19;;;;;;;2.45;0.40;;;23.30;77.20;;;;;;5017181;28;20490;-68
2022/07/07 08:33:44;;;;;;;1.17;0.20;;;23.30;77.10;;;;;;5016801;28;20026;-68
2022/07/07 08:36:10;;;;;;;1.80;0.25;;;23.30;77.10;;;;;;5017283;28;20390;-68
2022/07/07 08:38:36;;;;;;;2.20;0.30;;;23.30;77.00;;;;;;5016922;28;20431;-68
2022/07/07 08:41:01;;;;;;;1.45;0.40;;;23.30;76.80;;;;;;5017382;28;20029;-67
2022/07/07 08:43:28;;;;;;;2.60;0.40;;;23.40;76.70;;;;;;5016721;28;20125;-68
2022/07/07 08:45:53;;;;;;;3.97;0.50;;;23.40;76.70;;;;;;5016667;28;20018;-68
2022/07/07 08:48:20;;;;;;;3.40;0.40;;;23.30;76.70;;;;;;5016803;28;20025;-68
2022/07/07 08:50:46;;;;;;;3.58;0.60;;;23.40;76.70;;;;;;5016921;28;20021;-67
2022/07/07 08:53:12;;;;;;;2.85;0.63;;;23.40;76.60;;;;;;5016573;28;20116;-66
2022/07/07 08:55:41;;;;;;;4.32;0.82;;;23.40;76.60;;;;;;5016830;28;20099;-67
2022/07/07 08:58:09;;;;;;;3.88;0.90;;;23.40;76.70;;;;;;5016765;28;20088;-67
2022/07/07 09:00:34;;;;;;;4.22;0.70;;;23.40;76.60;;;;;;5016551;28;20022;-68
2022/07/07 09:03:03;;;;;;;3.67;0.60;;;23.40;76.50;;;;;;5016321;28;20383;-68
2022/07/07 09:05:33;;;;;;;4.10;0.55;;;23.40;76.30;;;;;;5016578;28;20390;-67
2022/07/07 09:07:59;;;;;;;3.63;0.63;;;23.50;76.10;;;;;;5015180;28;20057;-67
2022/07/07 09:10:30;;;;;;;4.22;0.80;;;23.50;75.90;;;;;;5016487;28;20074;-67
2022/07/07 09:12:56;;;;;;;3.93;0.67;;;23.50;75.80;;;;;;5016193;28;20076;-66
2022/07/07 09:15:22;;;;;;;7.38;0.68;;;23.50;75.80;;;;;;5016595;28;20436;-68
2022/07/07 09:17:47;;;;;;;2.75;0.60;;;23.60;76.10;;;;;;5016206;28;20057;-67
2022/07/07 09:20:13;;;;;;;5.32;0.80;;;23.60;76.20;;;;;;5016281;28;20101;-67
2022/07/07 09:22:46;;;;;;;2.67;0.52;;;23.50;76.10;;;;;;5016347;28;20053;-67
2022/07/07 09:25:13;;;;;;;2.17;0.43;;;23.60;76.40;;;;;;5016088;28;20104;-67
2022/07/07 09:28:05;;;;;;;6.00;0.82;;;23.60;76.50;;;;;;5016234;28;20387;-66
2022/07/07 09:30:41;;;;;;;;;;;23.50;76.60;;;;;;5016732;28;20077;-67
2022/07/07 09:33:25;;;;;;;3.28;0.55;;;23.60;76.60;;;;;;5015810;28;20351;-67
2022/07/07 09:38:39;;;;;;;3.88;0.82;;;23.60;76.70;;;;;;5015859;28;20045;-67
2022/07/07 09:41:12;;;;;;;3.03;0.60;;;23.60;76.70;;;;;;5016109;28;20089;-67
2022/07/07 09:43:45;;;;;;;3.80;0.77;;;23.60;76.70;;;;;;5015643;28;20044;-68
2022/07/07 09:46:16;;;;;;;5.32;1.10;;;23.60;76.50;;;;;;5015512;28;20101;-69
2022/07/07 09:48:46;;;;;;;4.60;0.80;;;23.60;76.40;;;;;;5015810;28;20483;-68
2022/07/07 09:51:16;;;;;;;2.72;0.80;;;23.60;76.10;;;;;;5015716;28;20253;-68
2022/07/07 09:53:55;;;;;;;2.80;0.88;;;23.60;76.10;;;;;;5015562;28;20042;-68
2022/07/07 09:56:22;;;;;;;2.60;0.57;;;23.60;76.10;;;;;;5015613;28;20061;-66
2022/07/07 09:58:48;;;;;;;3.80;0.75;;;23.60;75.90;;;;;;5015557;28;20022;-67
2022/07/07 10:01:16;;;;;;;2.90;0.50;;;23.60;75.90;;;;;;5015165;28;20049;-68
2022/07/07 10:03:42;;;;;;;5.85;1.05;;;23.60;76.10;;;;;;5015449;28;20093;-67
2022/07/07 10:06:10;;;;;;;2.75;0.60;;;23.60;76.30;;;;;;5015474;28;20037;-67
2022/07/07 10:08:43;;;;;;;2.33;0.60;;;23.60;76.80;;;;;;5015398;28;20089;-68
2022/07/07 10:11:11;;;;;;;1.83;0.47;;;23.60;77.00;;;;;;5015248;28;20093;-67
2022/07/07 10:13:39;;;;;;;2.83;0.55;;;23.60;77.40;;;;;;5015307;28;20069;-69
2022/07/07 10:16:06;;;;;;;3.95;0.60;;;23.60;77.20;;;;;;5014848;28;20124;-69
2022/07/07 10:18:33;;;;;;;3.08;0.35;;;23.60;77.20;;;;;;5015443;28;20041;-70
2022/07/07 10:20:58;;;;;;;2.13;0.55;;;23.60;77.10;;;;;;5013714;28;20491;-68
2022/07/07 10:23:25;;;;;;;2.00;0.55;;;23.60;77.10;;;;;;5015260;28;20058;-69
2022/07/07 10:26:04;;;;;;;3.22;0.60;;;23.60;77.00;;;;;;5015011;28;20014;-69
2022/07/07 10:28:55;;;;;;;4.35;0.63;;;23.60;76.90;;;;;;5015109;28;20026;-69
2022/07/07 10:31:25;;;;;;;2.40;0.40;;;23.60;76.80;;;;;;5014719;28;20085;-69
2022/07/07 10:34:02;;;;;;;4.40;0.75;;;23.60;76.60;;;;;;5014776;28;20041;-69
2022/07/07 10:36:49;;;;;;;3.85;0.73;;;23.60;76.60;;;;;;5014986;28;20495;-69
2022/07/07 10:39:16;;;;;;;3.30;0.80;;;23.60;76.70;;;;;;5014895;28;20459;-69
2022/07/07 10:41:54;;;;;;;10.88;0.93;;;23.60;77.10;;;;;;5014547;28;20018;-69
2022/07/07 10:44:20;;;;;;;4.03;0.55;;;23.60;77.70;;;;;;5014392;28;20038;-69
2022/07/07 10:47:04;;;;;;;1.90;0.50;;;23.60;77.80;;;;;;5014824;28;20022;-69
2022/07/07 10:49:39;;;;;;;1.63;0.40;;;23.60;78.00;;;;;;5014310;28;20095;-69
2022/07/07 10:52:13;;;;;;;2.15;0.50;;;23.60;78.30;;;;;;5014246;28;20081;-69
2022/07/07 10:55:01;;;;;;;2.67;0.60;;;23.60;78.30;;;;;;5014530;28;20058;-69
2022/07/07 10:57:38;;;;;;;2.60;0.45;;;23.60;78.10;;;;;;5014555;28;20022;-70
2022/07/07 11:00:09;;;;;;;2.97;0.57;;;23.60;78.20;;;;;;5014161;28;20537;-70
2022/07/07 11:03:00;;;;;;;5.05;1.05;;;23.70;78.40;;;;;;5014518;28;20029;-69
2022/07/07 11:05:31;;;;;;;5.13;1.20;;;23.60;78.40;;;;;;5003396;28;20034;-69
2022/07/07 11:07:56;;;;;;;3.08;0.70;;;23.60;78.10;;;;;;5014543;28;20022;-69
2022/07/07 11:10:40;;;;;;;4.00;0.88;;;23.60;77.80;;;;;;5014228;28;20030;-69
2022/07/07 11:13:37;;;;;;;3.28;0.80;;;23.60;77.80;;;;;;5013759;28;20097;-70
2022/07/07 11:16:05;;;;;;;3.65;0.98;;;23.60;77.60;;;;;;5014169;28;20022;-69
2022/07/07 11:18:33;;;;;;;3.53;0.65;;;23.70;77.80;;;;;;5014259;28;20025;-70
2022/07/07 11:21:01;;;;;;;2.97;0.75;;;23.60;77.80;;;;;;5014182;28;20035;-69
2022/07/07 11:23:50;;;;;;;3.70;0.95;;;23.60;78.60;;;;;;5014235;28;20022;-69
2022/07/07 11:26:23;;;;;;;3.55;0.65;;;23.60;78.50;;;;;;5013731;28;20446;-70
2022/07/07 11:28:55;;;;;;;6.10;0.65;;;23.70;78.30;;;;;;5013681;28;20022;-69
2022/07/07 11:31:21;;;;;;;3.55;0.60;;;23.60;78.00;;;;;;5013891;28;20551;-70
2022/07/07 11:33:52;;;;;;;3.47;0.80;;;23.70;77.80;;;;;;5013863;28;20395;-70
2022/07/07 11:36:23;;;;;;;2.83;0.57;;;23.70;77.60;;;;;;5013565;28;20412;-69
2022/07/07 11:38:52;;;;;;;6.03;0.77;;;23.70;77.60;;;;;;5014067;28;20348;-69
2022/07/07 11:41:18;;;;;;;2.83;0.30;;;23.70;77.10;;;;;;5013555;28;20022;-70
2022/07/07 11:43:53;;;;;;;3.50;0.63;;;23.60;76.80;;;;;;5013285;28;20125;-70
2022/07/07 11:46:22;;;;;;;2.42;0.65;;;23.70;77.00;;;;;;5013468;28;20093;-70
2022/07/07 11:48:48;;;;;;;2.60;0.38;;;23.70;76.80;;;;;;5013652;28;20021;-70
2022/07/07 11:51:14;;;;;;;3.75;0.47;;;23.70;76.70;;;;;;5013269;28;20085;-69
2022/07/07 11:53:39;;;;;;;2.15;0.40;;;23.70;76.70;;;;;;5013528;28;20100;-70
2022/07/07 11:56:06;;;;;;;4.60;0.60;;;23.70;76.70;;;;;;5013468;28;20380;-69
2022/07/07 11:58:32;;;;;;;6.00;0.60;;;23.70;76.60;;;;;;5013314;28;20026;-70
2022/07/07 12:00:59;;;;;;;2.08;0.40;;;23.70;76.60;;;;;;5013586;28;20076;-70
2022/07/07 12:03:29;;;;;;;3.15;0.30;;;23.70;76.60;;;;;;5013268;28;20109;-70
2022/07/07 12:05:55;;;;;;;1.75;0.40;;;23.70;76.60;;;;;;5013578;28;20337;-70
2022/07/07 12:08:21;;;;;;;2.78;0.50;;;23.70;76.40;;;;;;5013591;28;20164;-70
2022/07/07 12:10:54;;;;;;;3.80;0.50;;;23.70;76.10;;;;;;5013517;28;20057;-71
2022/07/07 12:13:20;;;;;;;2.88;0.73;;;23.70;76.10;;;;;;5013105;28;20034;-69
2022/07/07 12:15:50;;;;;;;3.50;0.85;;;23.70;76.10;;;;;;5013291;28;20028;-69
2022/07/07 12:18:20;;;;;;;1.58;0.40;;;23.70;75.90;;;;;;5012965;28;20022;-70
2022/07/07 12:20:57;;;;;;;4.18;0.93;;;23.70;76.10;;;;;;5013603;28;20488;-69
2022/07/07 12:23:22;;;;;;;4.40;0.75;;;23.70;76.10;;;;;;5013274;28;20030;-69
2022/07/07 12:25:48;;;;;;;3.17;0.60;;;23.80;76.10;;;;;;5012985;28;20403;-70
2022/07/07 12:28:13;;;;;;;2.03;0.40;;;23.70;76.00;;;;;;5013115;28;20037;-70
2022/07/07 12:30:54;;;;;;;4.38;0.52;;;23.70;76.00;;;;;;5013292;28;20034;-70
2022/07/07 12:33:39;;;;;;;3.28;0.40;;;23.70;76.10;;;;;;5012834;28;20030;-70
2022/07/07 12:36:12;;;;;;;2.70;0.55;;;23.70;76.10;;;;;;5013263;28;20057;-69
2022/07/07 12:38:42;;;;;;;3.05;0.47;;;23.80;76.00;;;;;;5012852;28;20036;-68
2022/07/07 12:41:08;;;;;;;3.25;0.77;;;23.80;75.90;;;;;;5012769;28;20036;-69
2022/07/07 12:43:35;;;;;;;3.20;0.60;;;23.70;75.70;;;;;;5012868;28;20042;-70
2022/07/07 12:46:09;;;;;;;2.17;0.40;;;23.70;75.60;;;;;;5013061;28;20021;-70
2022/07/07 12:48:46;;;;;;;3.90;0.68;;;23.80;75.70;;;;;;5012789;28;20041;-69
2022/07/07 12:51:11;;;;;;;3.15;0.50;;;23.80;75.70;;;;;;5012990;28;20030;-70
2022/07/07 12:53:38;;;;;;;2.80;0.60;;;23.70;75.50;;;;;;5012635;28;20528;-69